LHFH 271317Z 33801KT 30/17 Q1020 =

Kék Ég Repülő Sportegyesület


----

Centroplane Repülőiskola


Viharvadász Project

Airport WebCams in Europe